createdAt,value
2023-08-07T00:01:29.710Z,152379.16
2023-08-07T00:06:31.385Z,152389.50
2023-08-07T00:11:33.807Z,152393.44
2023-08-07T00:16:36.184Z,152392.13
2023-08-07T00:21:38.989Z,152390.84
2023-08-07T00:26:40.668Z,152359.75
2023-08-07T00:31:42.539Z,152383.06
2023-08-07T00:36:44.739Z,152392.13
2023-08-07T00:41:46.466Z,152408.94
2023-08-07T00:46:48.376Z,152397.28
2023-08-07T00:51:50.187Z,152424.53
2023-08-07T00:56:52.073Z,152418.03
2023-08-07T01:01:53.896Z,152379.16
2023-08-07T01:06:55.825Z,152373.97
2023-08-07T01:11:57.594Z,152418.03
2023-08-07T01:17:09.324Z,152402.50
2023-08-07T01:22:18.519Z,152393.44
2023-08-07T01:27:20.449Z,152386.94
2023-08-07T01:32:34.953Z,152392.13
2023-08-07T01:37:41.772Z,152344.19
2023-08-07T01:42:45.390Z,152314.38
2023-08-07T01:47:47.150Z,152320.81
2023-08-07T01:52:49.629Z,152332.53
2023-08-07T01:57:52.780Z,152358.47
2023-08-07T02:02:54.726Z,152337.72
2023-08-07T02:07:57.990Z,152342.91
2023-08-07T02:13:02.760Z,152368.84
2023-08-07T02:18:04.708Z,152381.78
2023-08-07T02:23:06.688Z,152401.16
2023-08-07T02:28:08.422Z,152410.25
2023-08-07T02:33:10.136Z,152420.59
2023-08-07T02:38:11.814Z,152415.44
2023-08-07T02:43:13.518Z,152402.50
2023-08-07T02:48:15.591Z,152411.53
2023-08-07T02:53:17.343Z,152394.72
2023-08-07T02:58:19.013Z,152386.94
2023-08-07T03:03:21.045Z,152329.94
2023-08-07T03:08:22.805Z,152309.19
2023-08-07T03:13:25.565Z,152296.22
2023-08-07T03:18:28.191Z,152209.47
2023-08-07T03:23:30.328Z,152129.25
2023-08-07T03:28:35.335Z,152089.16
2023-08-07T03:33:37.428Z,152045.16
2023-08-07T03:38:40.086Z,152046.44
2023-08-07T03:43:42.003Z,152081.38
2023-08-07T03:48:43.820Z,152091.72
2023-08-07T03:53:46.109Z,152156.44
2023-08-07T03:58:48.028Z,152165.47
2023-08-07T04:03:49.878Z,152190.09
2023-08-07T04:08:51.640Z,152208.19
2023-08-07T04:13:53.452Z,152250.91
2023-08-07T04:18:55.196Z,152238.00
2023-08-07T04:23:56.932Z,152210.81
2023-08-07T04:28:59.611Z,152257.41
2023-08-07T04:34:01.378Z,152270.34
2023-08-07T04:39:03.278Z,152247.06
2023-08-07T04:44:05.173Z,152248.34
2023-08-07T04:49:07.271Z,152275.50
2023-08-07T04:54:10.056Z,152285.88
2023-08-07T04:59:12.362Z,152293.66
2023-08-07T05:04:14.068Z,152320.81
2023-08-07T05:09:15.761Z,152335.16
2023-08-07T05:14:17.444Z,152326.09
2023-08-07T05:19:19.218Z,152344.19
2023-08-07T05:24:21.004Z,152383.06
2023-08-07T05:29:22.742Z,152379.16
2023-08-07T05:34:24.469Z,152389.50
2023-08-07T05:39:26.153Z,152373.97
2023-08-07T05:44:27.879Z,152416.75
2023-08-07T05:49:29.578Z,152418.03
2023-08-07T05:54:31.272Z,152475.03
2023-08-07T05:59:41.235Z,152442.63
2023-08-07T06:04:43.008Z,152469.84
2023-08-07T06:09:44.732Z,152521.66
2023-08-07T06:14:46.422Z,152534.59
2023-08-07T06:19:48.246Z,152511.28
2023-08-07T06:24:50.034Z,152498.34
2023-08-07T06:29:51.787Z,152513.84
2023-08-07T06:34:54.008Z,152522.94
2023-08-07T06:39:55.700Z,152578.66
2023-08-07T06:45:00.559Z,152565.72
2023-08-07T06:50:05.194Z,152617.56
2023-08-07T06:55:07.930Z,152647.38
2023-08-07T07:00:12.080Z,152697.97
2023-08-07T07:05:14.387Z,152727.75
2023-08-07T07:10:16.154Z,152729.09
2023-08-07T07:15:18.019Z,152744.63
2023-08-07T07:20:19.997Z,152708.34
2023-08-07T07:25:21.728Z,152729.09
2023-08-07T07:30:23.487Z,152809.47
2023-08-07T07:35:25.458Z,152845.75
2023-08-07T07:40:27.199Z,152913.25
2023-08-07T07:45:29.123Z,152934.00
2023-08-07T07:50:31.013Z,152888.56
2023-08-07T07:55:33.285Z,152871.69
2023-08-07T08:00:35.006Z,152872.97
2023-08-07T08:05:36.733Z,152919.75
2023-08-07T08:10:38.427Z,152970.31
2023-08-07T08:15:40.251Z,152969.03
2023-08-07T08:20:42.038Z,152989.78
2023-08-07T08:25:43.803Z,152993.66
2023-08-07T08:30:45.575Z,152992.38
2023-08-07T08:35:47.350Z,153024.81
2023-08-07T08:40:52.919Z,153007.91
2023-08-07T08:45:54.771Z,153062.41
2023-08-07T08:50:56.867Z,153162.41
2023-08-07T08:55:58.615Z,153150.66
2023-08-07T09:01:00.423Z,153137.69
2023-08-07T09:06:02.472Z,153091.00
2023-08-07T09:11:05.621Z,153046.88
2023-08-07T09:16:09.968Z,153094.88
2023-08-07T09:21:11.994Z,153219.50
2023-08-07T09:26:13.960Z,153318.19
2023-08-07T09:31:21.267Z,153331.16
2023-08-07T09:36:24.817Z,153332.47
2023-08-07T09:41:26.717Z,153366.22
2023-08-07T09:46:28.515Z,153436.38
2023-08-07T09:51:43.172Z,153319.47
2023-08-07T09:56:45.093Z,153387.00
2023-08-07T10:01:47.311Z,153503.94
2023-08-07T10:06:49.374Z,153333.75
2023-08-07T10:11:51.600Z,153240.28
2023-08-07T10:16:54.728Z,153314.31
2023-08-07T10:21:56.861Z,153336.38
2023-08-07T10:26:59.854Z,153152.00
2023-08-07T10:32:03.081Z,152917.13
2023-08-07T10:37:09.006Z,152844.47
2023-08-07T10:42:12.985Z,152937.88
2023-08-07T10:47:14.799Z,153050.75
2023-08-07T10:52:16.495Z,153029.97
2023-08-07T10:57:19.738Z,152975.47
2023-08-07T11:02:27.171Z,153061.13
2023-08-07T11:07:30.984Z,153249.38
2023-08-07T11:12:32.717Z,153216.91
2023-08-07T11:17:34.490Z,153245.44
2023-08-07T11:22:36.179Z,153424.69
2023-08-07T11:27:37.897Z,153414.31
2023-08-07T11:32:39.734Z,153279.22
2023-08-07T11:37:48.981Z,153266.25
2023-08-07T11:42:50.686Z,153223.44
2023-08-07T11:47:52.508Z,153150.66
2023-08-07T11:52:54.430Z,153119.50
2023-08-07T11:57:56.574Z,153045.56
2023-08-07T12:02:58.313Z,153006.63
2023-08-07T12:08:00.100Z,153149.38
2023-08-07T12:13:05.898Z,153288.31
2023-08-07T12:18:09.016Z,153316.91
2023-08-07T12:23:17.472Z,153368.81
2023-08-07T12:28:19.954Z,153293.53
2023-08-07T12:33:21.681Z,153215.63
2023-08-07T12:38:23.488Z,153132.47
2023-08-07T12:43:25.812Z,153126.03
2023-08-07T12:48:29.467Z,153176.66
2023-08-07T12:53:32.971Z,153232.47
2023-08-07T12:58:35.274Z,153203.94
2023-08-07T13:03:38.247Z,153094.88
2023-08-07T13:08:40.060Z,152998.88
2023-08-07T13:13:42.657Z,153126.03
2023-08-07T13:18:44.524Z,153284.44
2023-08-07T13:23:46.222Z,153383.13
2023-08-07T13:28:47.919Z,153442.91
2023-08-07T13:33:49.598Z,153448.06
2023-08-07T13:38:52.928Z,153466.28
2023-08-07T13:43:54.925Z,153355.81
2023-08-07T13:48:56.747Z,153194.84
2023-08-07T13:53:58.566Z,153201.38
2023-08-07T13:59:01.326Z,153196.16
2023-08-07T14:04:03.923Z,153074.09
2023-08-07T14:09:05.811Z,152791.28
2023-08-07T14:14:07.566Z,152537.22
2023-08-07T14:19:09.683Z,152508.69
2023-08-07T14:24:11.517Z,152515.19
2023-08-07T14:29:14.456Z,152539.81
2023-08-07T14:34:16.228Z,152673.34
2023-08-07T14:39:18.219Z,152774.47
2023-08-07T14:44:20.023Z,152861.31
2023-08-07T14:49:21.906Z,152893.78
2023-08-07T14:54:24.853Z,153006.63
2023-08-07T14:59:26.895Z,153022.22
2023-08-07T15:04:28.941Z,152972.91
2023-08-07T15:09:30.773Z,152937.88
2023-08-07T15:14:32.511Z,152826.28
2023-08-07T15:19:34.431Z,152700.53
2023-08-07T15:24:36.476Z,152655.19
2023-08-07T15:29:42.013Z,152651.31
2023-08-07T15:34:43.852Z,152696.66
2023-08-07T15:39:45.690Z,152767.97
2023-08-07T15:44:47.791Z,152793.88
2023-08-07T15:49:49.669Z,152787.41
2023-08-07T15:54:51.377Z,152751.13
2023-08-07T15:59:53.229Z,152469.84
2023-08-07T16:04:54.934Z,152296.22
2023-08-07T16:09:57.162Z,152228.91
2023-08-07T16:15:00.197Z,152208.19
2023-08-07T16:20:01.996Z,152252.22
2023-08-07T16:25:05.210Z,152304.03
2023-08-07T16:30:08.238Z,152335.16
2023-08-07T16:35:10.327Z,152402.50
2023-08-07T16:40:12.735Z,152408.94
2023-08-07T16:45:14.481Z,152526.84
2023-08-07T16:50:16.371Z,152544.97
2023-08-07T16:55:18.228Z,152557.91
2023-08-07T17:00:20.180Z,152556.63
2023-08-07T17:05:23.395Z,152522.94
2023-08-07T17:10:25.321Z,152445.22
2023-08-07T17:15:27.294Z,152372.69
2023-08-07T17:20:29.161Z,152339.03
2023-08-07T17:25:30.969Z,152394.72
2023-08-07T17:30:32.703Z,152373.97
2023-08-07T17:35:35.580Z,152377.84
2023-08-07T17:40:37.434Z,152373.97
2023-08-07T17:45:39.181Z,152340.31
2023-08-07T17:50:41.038Z,152315.66
2023-08-07T17:55:44.129Z,152288.44
2023-08-07T18:00:46.062Z,152275.50
2023-08-07T18:05:47.879Z,152262.56
2023-08-07T18:10:50.129Z,152287.16
2023-08-07T18:15:52.224Z,152306.59
2023-08-07T18:20:54.791Z,152316.97
2023-08-07T18:25:57.291Z,152302.72
2023-08-07T18:30:59.738Z,152280.72
2023-08-07T18:36:02.156Z,152291.09
2023-08-07T18:41:07.121Z,152301.44
2023-08-07T18:46:09.222Z,152265.16
2023-08-07T18:51:12.173Z,152240.56
2023-08-07T18:56:15.157Z,152252.22
2023-08-07T19:01:18.402Z,152199.13
2023-08-07T19:06:20.960Z,152192.69
2023-08-07T19:11:23.140Z,152157.75
2023-08-07T19:16:25.232Z,152159.03
2023-08-07T19:21:27.447Z,152205.63
2023-08-07T19:26:29.673Z,152179.75
2023-08-07T19:31:31.956Z,152177.16
2023-08-07T19:36:33.940Z,152164.19
2023-08-07T19:41:37.355Z,152135.72
2023-08-07T19:46:39.365Z,152148.66
2023-08-07T19:51:41.523Z,152135.72
2023-08-07T19:56:43.747Z,152130.53
2023-08-07T20:01:45.955Z,152126.66
2023-08-07T20:06:47.775Z,152161.59
2023-08-07T20:11:49.672Z,152174.53
2023-08-07T20:16:51.856Z,152169.38
2023-08-07T20:22:00.046Z,152196.53
2023-08-07T20:27:02.194Z,152231.50
2023-08-07T20:32:04.698Z,152215.97
2023-08-07T20:37:22.828Z,152235.41
2023-08-07T20:42:26.738Z,152239.28
2023-08-07T20:47:28.686Z,152245.78
2023-08-07T20:52:30.437Z,152257.41
2023-08-07T20:57:32.127Z,152260.00
2023-08-07T21:02:34.118Z,152253.50
2023-08-07T21:07:35.773Z,152236.69
2023-08-07T21:12:37.529Z,152236.69
2023-08-07T21:17:39.209Z,152244.47
2023-08-07T21:22:40.977Z,152228.91
2023-08-07T21:27:44.719Z,152234.13
2023-08-07T21:32:47.001Z,152239.28
2023-08-07T21:37:48.739Z,152221.13
2023-08-07T21:42:50.432Z,152219.84
2023-08-07T21:47:52.236Z,152186.19
2023-08-07T21:52:53.952Z,152218.56
2023-08-07T21:57:55.677Z,152234.13
2023-08-07T22:02:57.430Z,152214.69
2023-08-07T22:08:01.690Z,152200.47
2023-08-07T22:13:03.465Z,152206.91
2023-08-07T22:18:05.447Z,152210.81
2023-08-07T22:23:07.154Z,152199.13
2023-08-07T22:28:09.792Z,152203.03
2023-08-07T22:33:11.562Z,152177.16
2023-08-07T22:38:13.302Z,152177.16
2023-08-07T22:43:15.184Z,152143.50
2023-08-07T22:48:17.294Z,152138.31
2023-08-07T22:53:19.031Z,152122.81
2023-08-07T22:58:20.732Z,152095.59
2023-08-07T23:03:22.545Z,152098.16
2023-08-07T23:08:24.307Z,152102.09
2023-08-07T23:13:25.931Z,152073.59
2023-08-07T23:18:27.697Z,152071.03
2023-08-07T23:23:29.491Z,152060.66
2023-08-07T23:28:31.172Z,152046.44
2023-08-07T23:33:32.929Z,152045.16
2023-08-07T23:38:34.667Z,152028.31
2023-08-07T23:43:36.458Z,152012.81
2023-08-07T23:48:39.921Z,152006.31
2023-08-07T23:53:41.548Z,152027.03
2023-08-07T23:58:43.273Z,151968.75
